Time;durP1;ratioP1;P1;durP2;ratioP2;P2;SDS_P1;SDS_P2;PMS_P1;PMS_P2;Temp;Humidity;BMP_temperature;BMP_pressure;BME280_temperature;BME280_humidity;BME280_pressure;Samples;Min_cycle;Max_cycle;Signal;HPM_P1;HPM_P2
2021/04/13 00:00:35;;;;;;;;;;;;;;;-0.46;87.71;102760.78;4958212;28;2175;-74
2021/04/13 00:03:06;;;;;;;;;;;;;;;-0.50;88.09;102754.13;4959545;28;2147;-73
2021/04/13 00:05:44;;;;;;;;;;;;;;;-0.53;88.23;102747.28;4958775;28;2055;-73
2021/04/13 00:08:15;;;;;;;;;;;;;;;-0.43;88.66;102749.50;4958917;28;1233;-73
2021/04/13 00:10:54;;;;;;;;;;;;;;;-0.36;88.61;102754.84;4961510;28;1465;-73
2021/04/13 00:13:22;;;;;;;;;;;;;;;-0.32;88.71;102756.88;4958898;28;1028;-73
2021/04/13 00:15:52;;;;;;;;;;;;;;;-0.24;88.46;102755.78;4957595;29;2069;-73
2021/04/13 00:18:24;;;;;;;;;;;;;;;-0.09;88.60;102750.81;4957916;28;2052;-73
2021/04/13 00:20:55;;;;;;;;;;;;;;;0.05;87.79;102754.19;4958626;28;1871;-74
2021/04/13 00:23:21;;;;;;;;;;;;;;;0.13;87.53;102761.25;4959219;28;942;-73
2021/04/13 00:25:51;;;;;;;;;;;;;;;0.16;87.37;102768.94;4957802;28;2055;-73
2021/04/13 00:28:27;;;;;;;;;;;;;;;0.22;87.12;102772.63;4958996;28;1430;-73
2021/04/13 00:30:56;;;;;;;;;;;;;;;0.30;87.33;102783.22;4958609;28;2045;-73
2021/04/13 00:33:26;;;;;;;;;;;;;;;0.37;86.99;102798.38;4957650;28;2032;-73
2021/04/13 00:36:12;;;;;;;;;;;;;;;0.42;86.94;102786.81;4958327;28;1961;-73
2021/04/13 00:38:43;;;;;;;;;;;;;;;0.43;86.32;102783.03;4957815;28;1906;-73
2021/04/13 00:41:16;;;;;;;;;;;;;;;0.33;86.03;102775.44;4959212;28;1004;-74
2021/04/13 00:43:49;;;;;;;;;;;;;;;0.21;86.21;102779.13;4941704;29;818;-73
2021/04/13 00:46:21;;;;;;;;;;;;;;;0.04;86.27;102774.28;4950989;29;1915;-73
2021/04/13 00:48:46;;;;;;;;;;;;;;;-0.09;87.25;102772.53;4957090;28;1958;-74
2021/04/13 00:51:15;;;;;;;;;;;;;;;-0.23;87.65;102779.16;4958715;28;881;-73
2021/04/13 00:53:43;;;;;;;;;;;;;;;-0.28;87.88;102777.09;4958372;28;837;-73
2021/04/13 00:56:13;;;;;;;;;;;;;;;-0.31;88.15;102774.00;4958114;28;2079;-75
2021/04/13 00:59:04;;;;;;;;;;;;;;;-0.36;88.46;102766.53;4957441;28;1883;-73
2021/04/13 01:01:36;;;;;;;;;;;;;;;-0.35;88.72;102773.63;4958047;28;2147;-73
2021/04/13 01:04:09;;;;;;;;;;;;;;;-0.35;88.79;102773.63;4958155;28;2024;-73
2021/04/13 01:06:35;;;;;;;;;;;;;;;-0.35;88.86;102772.78;4957753;28;2007;-73
2021/04/13 01:09:21;;;;;;;;;;;;;;;-0.48;88.34;102769.16;4955386;29;2023;-74
2021/04/13 01:11:58;;;;;;;;;;;;;;;-0.57;88.71;102771.31;4957962;28;2069;-73
2021/04/13 01:14:26;;;;;;;;;;;;;;;-0.65;89.06;102771.59;4957584;28;1994;-73
2021/04/13 01:16:56;;;;;;;;;;;;;;;-0.64;89.28;102766.97;4958040;28;2072;-73
2021/04/13 01:19:59;;;;;;;;;;;;;;;-0.72;89.57;102770.00;4953333;29;1895;-73
2021/04/13 01:23:03;;;;;;;;;;;;;;;-0.67;89.96;102775.59;4955958;29;2062;-73
2021/04/13 01:25:35;;;;;;;;;;;;;;;-0.69;90.57;102766.81;4957389;29;1944;-74
2021/04/13 01:28:11;;;;;;;;;;;;;;;-0.75;90.26;102773.97;4957599;28;1206;-73
2021/04/13 01:30:48;;;;;;;;;;;;;;;-0.73;90.34;102765.59;4958901;28;2072;-73
2021/04/13 01:33:24;;;;;;;;;;;;;;;-0.74;90.75;102770.22;4958462;28;2108;-73
2021/04/13 01:35:58;;;;;;;;;;;;;;;-0.68;90.83;102771.19;4956005;29;2138;-73
2021/04/13 01:38:39;;;;;;;;;;;;;;;-0.70;90.89;102771.41;4956815;28;1222;-73
2021/04/13 01:43:44;;;;;;;;;;;;;;;-0.84;91.19;102770.69;4957802;28;840;-73
2021/04/13 01:46:12;;;;;;;;;;;;;;;-0.94;90.86;102773.03;4955915;29;2064;-73
2021/04/13 01:48:39;;;;;;;;;;;;;;;-0.99;91.30;102772.88;4956368;28;2038;-73
2021/04/13 01:51:07;;;;;;;;;;;;;;;-0.92;91.77;102767.41;4957965;28;846;-73
2021/04/13 01:53:39;;;;;;;;;;;;;;;-0.79;91.75;102768.13;4957237;28;893;-73
2021/04/13 01:56:09;;;;;;;;;;;;;;;-0.71;92.26;102777.06;4956614;28;2179;-73
2021/04/13 01:58:43;;;;;;;;;;;;;;;-0.57;92.68;102776.75;4955859;29;1867;-73
2021/04/13 02:01:30;;;;;;;;;;;;;;;-0.37;92.30;102778.44;4956789;28;2132;-77
2021/04/13 02:04:20;;;;;;;;;;;;;;;-0.31;92.01;102780.28;4957149;28;2108;-73
2021/04/13 02:07:21;;;;;;;;;;;;;;;-0.39;91.49;102775.94;4957500;28;2413;-73
2021/04/13 02:09:51;;;;;;;;;;;;;;;-0.49;91.30;102786.47;4959078;28;2090;-73
2021/04/13 02:12:24;;;;;;;;;;;;;;;-0.48;92.28;102781.91;4959425;28;841;-73
2021/04/13 02:15:06;;;;;;;;;;;;;;;-0.51;92.35;102787.75;4958543;28;921;-73
2021/04/13 02:17:41;;;;;;;;;;;;;;;-0.49;92.30;102791.09;4957147;28;1979;-73
2021/04/13 02:20:13;;;;;;;;;;;;;;;-0.49;92.27;102788.38;4956790;28;2063;-73
2021/04/13 02:22:44;;;;;;;;;;;;;;;-0.45;93.03;102787.72;4957924;28;2051;-73
2021/04/13 02:25:12;;;;;;;;;;;;;;;-0.40;92.56;102787.88;4959410;28;1831;-74
2021/04/13 02:27:40;;;;;;;;;;;;;;;-0.42;92.82;102789.13;4957798;28;1194;-74
2021/04/13 02:30:18;;;;;;;;;;;;;;;-0.44;92.46;102800.22;4961404;28;2010;-73
2021/04/13 02:32:46;;;;;;;;;;;;;;;-0.41;92.39;102793.53;4960560;28;2127;-73
2021/04/13 02:35:19;;;;;;;;;;;;;;;-0.36;92.53;102799.13;4957608;28;1872;-73
2021/04/13 02:37:51;;;;;;;;;;;;;;;-0.34;92.61;102799.72;4955877;29;1386;-73
2021/04/13 02:40:23;;;;;;;;;;;;;;;-0.31;92.52;102803.88;4957566;28;1902;-73
2021/04/13 02:42:52;;;;;;;;;;;;;;;-0.29;92.42;102801.78;4956551;28;2100;-73
2021/04/13 02:45:42;;;;;;;;;;;;;;;-0.27;92.65;102799.66;4956815;28;2094;-73
2021/04/13 02:48:32;;;;;;;;;;;;;;;-0.21;92.48;102798.75;4955870;28;2068;-73
2021/04/13 02:51:03;;;;;;;;;;;;;;;-0.17;92.22;102802.72;4960720;28;968;-73
2021/04/13 02:53:47;;;;;;;;;;;;;;;-0.22;92.10;102797.94;4960789;28;852;-73
2021/04/13 02:56:20;;;;;;;;;;;;;;;-0.21;92.38;102790.63;4960181;28;2103;-73
2021/04/13 02:59:06;;;;;;;;;;;;;;;-0.22;91.99;102797.13;4960054;28;1894;-73
2021/04/13 03:01:34;;;;;;;;;;;;;;;-0.26;91.98;102796.75;4960542;28;2084;-73
2021/04/13 03:04:05;;;;;;;;;;;;;;;-0.34;92.21;102801.63;4957365;29;1914;-73
2021/04/13 03:06:35;;;;;;;;;;;;;;;-0.42;92.14;102808.13;4960221;28;1000;-73
2021/04/13 03:09:03;;;;;;;;;;;;;;;-0.37;92.24;102821.88;4959085;28;2015;-73
2021/04/13 03:11:29;;;;;;;;;;;;;;;-0.42;92.94;102803.53;4960154;28;893;-73
2021/04/13 03:13:55;;;;;;;;;;;;;;;-0.18;92.48;102825.47;4960235;28;933;-73
2021/04/13 03:16:32;;;;;;;;;;;;;;;-0.14;92.61;102826.69;4958571;29;2078;-73
2021/04/13 03:19:00;;;;;;;;;;;;;;;-0.12;92.40;102816.44;4959147;28;2061;-73
2021/04/13 03:21:30;;;;;;;;;;;;;;;-0.07;92.17;102823.91;4959626;28;1985;-73
2021/04/13 03:23:58;;;;;;;;;;;;;;;-0.08;92.08;102816.84;4959254;29;790;-73
2021/04/13 03:26:44;;;;;;;;;;;;;;;-0.15;91.59;102816.91;4959563;28;2036;-73
2021/04/13 03:29:18;;;;;;;;;;;;;;;-0.13;91.86;102831.06;4960548;28;1348;-73
2021/04/13 03:31:45;;;;;;;;;;;;;;;-0.04;92.44;102829.72;4959681;28;2122;-73
2021/04/13 03:34:10;;;;;;;;;;;;;;;0.07;92.14;102830.03;4959295;28;2093;-73
2021/04/13 03:36:36;;;;;;;;;;;;;;;0.09;91.95;102822.53;4959437;28;2063;-73
2021/04/13 03:39:08;;;;;;;;;;;;;;;0.06;91.45;102814.81;4959837;28;1965;-73
2021/04/13 03:41:35;;;;;;;;;;;;;;;-0.10;91.72;102814.34;4960021;28;987;-73
2021/04/13 03:44:02;;;;;;;;;;;;;;;-0.27;91.54;102813.25;4959899;28;786;-73
2021/04/13 03:46:38;;;;;;;;;;;;;;;-0.44;92.19;102815.69;4959272;28;2120;-73
2021/04/13 03:49:08;;;;;;;;;;;;;;;-0.57;92.54;102812.03;4958906;28;2092;-73
2021/04/13 03:51:38;;;;;;;;;;;;;;;-0.62;92.72;102820.00;4960335;28;837;-73
2021/04/13 03:54:28;;;;;;;;;;;;;;;-0.72;93.16;102810.69;4962377;28;813;-73
2021/04/13 03:56:54;;;;;;;;;;;;;;;-0.84;93.04;102818.69;4959398;28;2068;-73
2021/04/13 03:59:26;;;;;;;;;;;;;;;-0.85;93.75;102815.16;4958687;28;1962;-73
2021/04/13 04:01:52;;;;;;;;;;;;;;;-1.01;93.70;102816.47;4958455;28;2060;-73
2021/04/13 04:04:23;;;;;;;;;;;;;;;-1.04;93.60;102814.22;4959488;28;913;-73
2021/04/13 04:06:55;;;;;;;;;;;;;;;-1.09;93.80;102816.75;4958678;28;2027;-73
2021/04/13 04:09:34;;;;;;;;;;;;;;;-1.15;93.82;102825.75;4958568;28;1293;-73
2021/04/13 04:12:03;;;;;;;;;;;;;;;-1.07;94.80;102828.22;4957796;28;1342;-73
2021/04/13 04:14:30;;;;;;;;;;;;;;;-1.08;94.84;102828.41;4957416;28;2080;-73
2021/04/13 04:17:05;;;;;;;;;;;;;;;-1.17;94.47;102830.56;4958039;28;2097;-73
2021/04/13 04:19:31;;;;;;;;;;;;;;;-1.21;94.68;102835.56;4958471;28;2021;-73
2021/04/13 04:22:00;;;;;;;;;;;;;;;-1.26;94.66;102829.97;4958768;28;889;-73
2021/04/13 04:24:32;;;;;;;;;;;;;;;-1.29;94.55;102833.09;4958370;28;2022;-73
2021/04/13 04:27:03;;;;;;;;;;;;;;;-1.35;94.62;102828.53;4957659;28;2055;-73
2021/04/13 04:29:28;;;;;;;;;;;;;;;-1.33;94.92;102824.56;4957034;28;2171;-73
2021/04/13 04:31:53;;;;;;;;;;;;;;;-1.18;94.89;102820.75;4958947;28;2080;-74
2021/04/13 04:34:18;;;;;;;;;;;;;;;-1.24;94.79;102827.03;4957510;28;1291;-73
2021/04/13 04:36:45;;;;;;;;;;;;;;;-1.20;94.96;102831.81;4958129;28;2083;-73
2021/04/13 04:39:31;;;;;;;;;;;;;;;-1.16;95.19;102818.63;4958265;28;2096;-73
2021/04/13 04:42:08;;;;;;;;;;;;;;;-1.13;95.15;102824.47;4959847;28;836;-73
2021/04/13 04:44:34;;;;;;;;;;;;;;;-1.13;95.19;102829.88;4958931;28;2167;-73
2021/04/13 04:47:00;;;;;;;;;;;;;;;-1.09;95.52;102833.03;4958126;28;2946;-72
2021/04/13 04:49:39;;;;;;;;;;;;;;;-1.04;95.64;102840.50;4959043;28;1283;-73
2021/04/13 04:52:05;;;;;;;;;;;;;;;-1.07;95.56;102847.19;4958286;28;2781;-72
2021/04/13 04:54:30;;;;;;;;;;;;;;;-1.02;95.28;102841.09;4958288;28;980;-72
2021/04/13 04:56:55;;;;;;;;;;;;;;;-0.98;95.70;102847.78;4957838;28;1969;-73
2021/04/13 04:59:21;;;;;;;;;;;;;;;-0.96;95.02;102851.09;4952517;28;1896;-74
2021/04/13 05:01:47;;;;;;;;;;;;;;;-0.94;95.26;102859.84;4957316;28;2000;-73
2021/04/13 05:04:12;;;;;;;;;;;;;;;-0.89;95.16;102868.16;4957978;29;2526;-73
2021/04/13 05:06:37;;;;;;;;;;;;;;;-0.79;95.05;102873.94;4957809;28;1860;-72
2021/04/13 05:09:03;;;;;;;;;;;;;;;-0.59;95.15;102889.25;4958553;28;1289;-73
2021/04/13 05:11:29;;;;;;;;;;;;;;;-0.30;95.08;102897.84;4959419;28;2110;-73
2021/04/13 05:13:54;;;;;;;;;;;;;;;-0.11;94.85;102890.59;4957498;28;851;-72
2021/04/13 05:16:20;;;;;;;;;;;;;;;-0.04;94.73;102885.94;4957496;28;1831;-72
2021/04/13 05:18:46;;;;;;;;;;;;;;;0.10;94.26;102868.47;4957059;28;1974;-73
2021/04/13 05:21:11;;;;;;;;;;;;;;;0.42;93.70;102872.97;4958187;28;972;-73
2021/04/13 05:23:36;;;;;;;;;;;;;;;0.76;91.90;102879.66;4958972;28;940;-73
2021/04/13 05:26:03;;;;;;;;;;;;;;;1.16;90.61;102879.19;4961295;28;1829;-73
2021/04/13 05:28:28;;;;;;;;;;;;;;;1.48;88.75;102881.66;4959565;28;1229;-72
2021/04/13 05:30:54;;;;;;;;;;;;;;;2.83;84.16;102892.69;4957437;28;1044;-72
2021/04/13 05:33:20;;;;;;;;;;;;;;;4.19;76.83;102860.09;4957055;28;1989;-73
2021/04/13 05:35:46;;;;;;;;;;;;;;;4.86;72.45;102876.34;4957060;28;2258;-73
2021/04/13 05:38:24;;;;;;;;;;;;;;;4.92;71.63;102877.22;4956376;28;2135;-73
2021/04/13 05:40:49;;;;;;;;;;;;;;;5.47;69.81;102881.66;4945927;28;2416;-72
2021/04/13 05:43:17;;;;;;;;;;;;;;;6.23;67.14;102888.06;4954788;29;1969;-72
2021/04/13 05:45:46;;;;;;;;;;;;;;;6.77;64.09;102879.56;4957164;28;1989;-73
2021/04/13 05:48:11;;;;;;;;;;;;;;;6.93;64.39;102885.09;4956440;28;2063;-74
2021/04/13 05:50:40;;;;;;;;;;;;;;;7.52;61.68;102886.63;4952928;28;3882;-73
2021/04/13 05:53:05;;;;;;;;;;;;;;;8.55;61.18;102881.88;4950628;29;2423;-73
2021/04/13 05:55:31;;;;;;;;;;;;;;;8.17;57.48;102888.84;4956257;28;1984;-73
2021/04/13 05:58:01;;;;;;;;;;;;;;;5.41;66.23;102903.78;4956575;29;2696;-73
2021/04/13 06:00:28;;;;;;;;;;;;;;;6.14;66.13;102901.44;4957695;28;1894;-72
2021/04/13 06:02:54;;;;;;;;;;;;;;;6.58;63.65;102900.34;4960766;28;2311;-73
2021/04/13 06:05:25;;;;;;;;;;;;;;;6.93;64.35;102905.16;4956439;28;1979;-73
2021/04/13 06:07:51;;;;;;;;;;;;;;;6.19;64.90;102919.84;4957070;28;2129;-73
2021/04/13 06:10:16;;;;;;;;;;;;;;;6.38;63.59;102922.97;4958097;28;1050;-73
2021/04/13 06:12:42;;;;;;;;;;;;;;;6.83;64.42;102924.31;4957062;28;1918;-73
2021/04/13 06:15:09;;;;;;;;;;;;;;;6.42;66.83;102906.81;4956760;28;1914;-73
2021/04/13 06:17:34;;;;;;;;;;;;;;;7.66;62.00;102906.16;4956322;28;2249;-73
2021/04/13 06:20:00;;;;;;;;;;;;;;;9.66;58.20;102899.22;4957621;28;2006;-73
2021/04/13 06:22:25;;;;;;;;;;;;;;;10.88;54.28;102904.63;4957553;28;977;-73
2021/04/13 06:24:51;;;;;;;;;;;;;;;10.70;50.59;102906.25;4959682;28;1990;-73
2021/04/13 06:27:16;;;;;;;;;;;;;;;10.56;53.67;102914.41;4962430;28;926;-73
2021/04/13 06:29:42;;;;;;;;;;;;;;;11.68;51.33;102905.75;4958792;29;1946;-73
2021/04/13 06:32:10;;;;;;;;;;;;;;;11.32;50.71;102920.09;4959764;29;1882;-73
2021/04/13 06:34:36;;;;;;;;;;;;;;;11.84;50.46;102928.44;4959535;28;3479;-73
2021/04/13 06:37:04;;;;;;;;;;;;;;;12.56;47.48;102930.81;4956865;28;3673;-73
2021/04/13 06:39:32;;;;;;;;;;;;;;;13.47;44.89;102931.97;4959327;29;2091;-73
2021/04/13 06:42:24;;;;;;;;;;;;;;;15.01;40.85;102919.59;4961118;28;1016;-73
2021/04/13 06:45:22;;;;;;;;;;;;;;;15.70;39.50;102937.50;4960696;28;1855;-73
2021/04/13 06:48:05;;;;;;;;;;;;;;;15.47;38.60;102936.88;4957701;29;1906;-73
2021/04/13 06:50:44;;;;;;;;;;;;;;;15.05;40.85;102947.59;4954111;28;3266;-73
2021/04/13 06:53:19;;;;;;;;;;;;;;;15.61;38.09;102933.94;4954478;28;3813;-73
2021/04/13 06:56:18;;;;;;;;;;;;;;;16.17;38.88;102934.03;4952660;28;4206;-73
2021/04/13 06:59:02;;;;;;;;;;;;;;;13.72;42.27;102943.59;4951429;29;1420;-73
2021/04/13 07:02:00;;;;;;;;;;;;;;;13.32;43.01;102924.81;4953185;29;3429;-73
2021/04/13 07:05:00;;;;;;;;;;;;;;;15.08;41.46;102941.38;4959191;28;912;-72
2021/04/13 07:07:50;;;;;;;;;;;;;;;16.90;37.56;102941.50;4959020;28;2138;-73
2021/04/13 07:10:37;;;;;;;;;;;;;;;15.88;38.67;102943.09;4961527;28;845;-72
2021/04/13 07:13:43;;;;;;;;;;;;;;;14.27;39.65;102946.13;4960611;28;833;-73
2021/04/13 07:16:18;;;;;;;;;;;;;;;13.78;43.27;102949.84;4959802;28;2025;-73
2021/04/13 07:19:02;;;;;;;;;;;;;;;13.24;42.00;102944.13;4959473;28;2015;-73
2021/04/13 07:21:47;;;;;;;;;;;;;;;13.45;42.08;102950.06;4957161;28;2145;-73
2021/04/13 07:24:27;;;;;;;;;;;;;;;14.51;40.77;102958.00;4950316;29;2051;-73
2021/04/13 07:27:08;;;;;;;;;;;;;;;15.09;39.08;102956.09;4957858;28;2410;-73
2021/04/13 07:29:43;;;;;;;;;;;;;;;14.68;39.03;102960.88;4954524;28;2354;-74
2021/04/13 07:32:14;;;;;;;;;;;;;;;14.42;38.52;102953.22;4953579;28;2126;-73
2021/04/13 07:34:41;;;;;;;;;;;;;;;13.19;42.25;102971.97;4956579;28;2254;-73
2021/04/13 07:37:30;;;;;;;;;;;;;;;11.79;46.12;102962.56;4957542;28;2316;-73
2021/04/13 07:39:58;;;;;;;;;;;;;;;11.01;48.12;102981.31;4959274;28;1895;-73
2021/04/13 07:42:31;;;;;;;;;;;;;;;8.89;52.75;102988.63;4958334;28;2172;-72
2021/04/13 07:45:19;;;;;;;;;;;;;;;9.90;52.07;102974.63;4957461;28;2014;-73
2021/04/13 07:47:44;;;;;;;;;;;;;;;10.45;48.07;102982.75;4954042;28;2025;-73
2021/04/13 07:50:11;;;;;;;;;;;;;;;11.37;47.66;102980.03;4954929;28;2253;-73
2021/04/13 07:52:50;;;;;;;;;;;;;;;13.04;42.56;102965.59;4957186;28;2227;-73
2021/04/13 07:57:49;;;;;;;;;;;;;;;14.85;38.02;102980.44;4935159;29;2063;-72
2021/04/13 08:00:25;;;;;;;;;;;;;;;15.86;38.32;102976.03;4937883;29;1910;-73
2021/04/13 08:03:24;;;;;;;;;;;;;;;17.29;33.89;102968.19;4939404;29;921;-73
2021/04/13 08:05:52;;;;;;;;;;;;;;;14.52;39.53;102971.59;4939390;29;810;-73
2021/04/13 08:08:28;;;;;;;;;;;;;;;15.11;39.15;102971.34;4938842;29;1175;-73
2021/04/13 08:11:13;;;;;;;;;;;;;;;14.91;37.94;102975.53;4939364;29;1000;-73
2021/04/13 08:13:42;;;;;;;;;;;;;;;14.65;38.45;102972.66;4939409;29;770;-73
2021/04/13 08:16:30;;;;;;;;;;;;;;;14.00;41.25;102974.00;4939360;29;924;-72
2021/04/13 08:19:34;;;;;;;;;;;;;;;15.66;37.94;102967.19;4939516;29;1964;-73
2021/04/13 08:22:13;;;;;;;;;;;;;;;18.77;33.92;102962.31;4940009;29;840;-73
2021/04/13 08:24:52;;;;;;;;;;;;;;;19.01;31.02;102958.75;4939001;29;786;-74
2021/04/13 08:27:29;;;;;;;;;;;;;;;18.77;31.39;102949.16;4939086;29;802;-73
2021/04/13 08:30:48;;;;;;;;;;;;;;;20.26;28.95;102956.03;4938891;29;1324;-72
2021/04/13 08:33:23;;;;;;;;;;;;;;;;;;4862679;29;1366;-73
2021/04/13 08:36:16;;;;;;;;;;;;;;;14.65;35.47;102970.69;4927146;29;1115;-72
2021/04/13 08:39:01;;;;;;;;;;;;;;;11.79;42.77;102984.69;4938201;29;1195;-75
2021/04/13 08:41:31;;;;;;;;;;;;;;;10.83;46.07;102988.44;4938954;29;845;-75
2021/04/13 08:44:10;;;;;;;;;;;;;;;12.02;43.67;102979.41;4941832;29;891;-75
2021/04/13 08:47:11;;;;;;;;;;;;;;;12.27;43.24;102992.00;4938615;29;829;-74
2021/04/13 08:49:50;;;;;;;;;;;;;;;11.56;44.53;102997.50;4938315;29;1245;-74
2021/04/13 08:52:28;;;;;;;;;;;;;;;11.15;45.90;103009.09;4938790;29;854;-74
2021/04/13 08:55:07;;;;;;;;;;;;;;;9.39;49.79;102999.75;4938800;29;790;-74
2021/04/13 08:57:36;;;;;;;;;;;;;;;8.61;52.97;103010.19;4938399;29;1026;-73
2021/04/13 09:00:20;;;;;;;;;;;;;;;8.65;53.48;103014.06;4938751;29;1958;-74
2021/04/13 09:02:58;;;;;;;;;;;;;;;8.84;52.63;103007.94;4938867;29;849;-74
2021/04/13 09:05:29;;;;;;;;;;;;;;;11.55;45.90;103001.38;4940252;29;824;-74
2021/04/13 09:08:41;;;;;;;;;;;;;;;14.63;39.33;103000.75;4938253;29;1186;-74
2021/04/13 09:11:18;;;;;;;;;;;;;;;15.74;37.67;103008.09;4938270;29;786;-75
2021/04/13 09:13:59;;;;;;;;;;;;;;;12.62;44.15;103011.88;4938560;29;910;-74
2021/04/13 09:16:26;;;;;;;;;;;;;;;10.77;49.23;103008.13;4938518;29;774;-74
2021/04/13 09:18:57;;;;;;;;;;;;;;;9.63;51.60;103016.44;4937817;29;1886;-75
2021/04/13 09:21:43;;;;;;;;;;;;;;;9.22;52.82;103017.47;4938437;29;790;-74
2021/04/13 09:24:25;;;;;;;;;;;;;;;9.20;52.74;103016.94;4938619;29;857;-74
2021/04/13 09:26:56;;;;;;;;;;;;;;;9.05;53.07;103011.47;4938619;29;981;-74
2021/04/13 09:29:40;;;;;;;;;;;;;;;14.48;42.07;102998.34;4937803;29;1280;-74
2021/04/13 09:32:26;;;;;;;;;;;;;;;19.61;32.36;102986.19;4938448;29;1059;-74
2021/04/13 09:34:57;;;;;;;;;;;;;;;18.68;30.31;102970.03;4927364;29;1254;-74
2021/04/13 09:37:59;;;;;;;;;;;;;;;16.67;34.61;102978.00;4938238;29;974;-74
2021/04/13 09:40:40;;;;;;;;;;;;;;;14.38;36.58;102984.72;4937946;29;1899;-75
2021/04/13 09:43:38;;;;;;;;;;;;;;;15.06;34.38;102985.41;4937933;29;896;-75
2021/04/13 09:46:09;;;;;;;;;;;;;;;16.68;32.23;102970.44;4938247;29;856;-74
2021/04/13 09:48:56;;;;;;;;;;;;;;;17.04;30.40;102974.72;4936384;29;1262;-75
2021/04/13 09:51:27;;;;;;;;;;;;;;;15.11;34.01;102982.47;4937726;29;561;-75
2021/04/13 09:54:05;;;;;;;;;;;;;;;13.28;41.77;102993.13;4938166;29;805;-74
2021/04/13 09:57:14;;;;;;;;;;;;;;;11.33;47.39;102990.06;4938200;29;1224;-75
2021/04/13 10:00:02;;;;;;;;;;;;;;;10.62;48.88;102995.28;4936796;29;2232;-75
2021/04/13 10:02:44;;;;;;;;;;;;;;;10.51;50.73;103000.09;4938309;29;805;-75
2021/04/13 10:05:14;;;;;;;;;;;;;;;10.13;50.53;102997.09;4938201;29;826;-75
2021/04/13 10:07:41;;;;;;;;;;;;;;;10.46;50.34;103000.16;4935899;29;1229;-75
2021/04/13 10:10:17;;;;;;;;;;;;;;;13.74;45.29;102980.22;4928488;29;3791;-75
2021/04/13 10:12:54;;;;;;;;;;;;;;;14.38;41.60;102976.38;4936050;29;3905;-74
2021/04/13 10:15:44;;;;;;;;;;;;;;;13.17;41.61;102981.41;4932351;29;3999;-75
2021/04/13 10:18:45;;;;;;;;;;;;;;;12.29;46.81;102986.16;4931862;29;1402;-75
2021/04/13 10:21:35;;;;;;;;;;;;;;;12.06;48.48;102985.16;4938701;29;1960;-75
2021/04/13 10:24:40;;;;;;;;;;;;;;;11.61;50.48;102991.88;4938398;29;1008;-76
2021/04/13 10:27:33;;;;;;;;;;;;;;;9.65;50.49;103007.91;4937206;29;3999;-75
2021/04/13 10:30:23;;;;;;;;;;;;;;;8.13;55.08;103008.78;4936254;29;1669;-75
2021/04/13 10:33:06;;;;;;;;;;;;;;;7.89;55.81;103012.09;4938714;29;937;-74
2021/04/13 10:35:41;;;;;;;;;;;;;;;10.37;52.50;102999.94;4938891;29;877;-75
2021/04/13 10:38:32;;;;;;;;;;;;;;;14.96;40.15;102980.13;4937221;29;1555;-74
2021/04/13 10:41:15;;;;;;;;;;;;;;;18.14;35.07;102966.19;4938688;29;1956;-75
2021/04/13 10:44:15;;;;;;;;;;;;;;;21.46;30.34;102962.53;4938353;29;775;-73
2021/04/13 10:47:21;;;;;;;;;;;;;;;21.85;27.27;102951.31;4938539;29;988;-75
2021/04/13 10:50:31;;;;;;;;;;;;;;;22.58;23.93;102951.47;4926861;29;1254;-73
2021/04/13 10:53:23;;;;;;;;;;;;;;;17.49;28.74;102968.53;4898203;29;1149;-73
2021/04/13 10:56:26;;;;;;;;;;;;;;;19.16;26.53;102963.63;4911500;29;1373;-73
2021/04/13 10:59:12;;;;;;;;;;;;;;;21.00;25.16;102957.47;4935298;29;1302;-74
2021/04/13 11:01:49;;;;;;;;;;;;;;;22.03;23.74;102963.75;4937049;29;897;-74
2021/04/13 11:04:53;;;;;;;;;;;;;;;17.05;32.35;102991.16;4935881;29;3109;-73
2021/04/13 11:07:48;;;;;;;;;;;;;;;11.30;41.39;103005.31;4921880;29;1064;-75
2021/04/13 11:10:32;;;;;;;;;;;;;;;9.62;48.37;102998.28;4876466;29;1202;-74
2021/04/13 11:13:38;;;;;;;;;;;;;;;9.06;51.78;102993.00;4929469;29;1271;-75
2021/04/13 11:16:35;;;;;;;;;;;;;;;9.04;51.99;102991.34;4936032;29;1230;-75
2021/04/13 11:19:39;;;;;;;;;;;;;;;9.66;51.03;102990.25;4921571;29;1887;-74
2021/04/13 11:22:04;;;;;;;;;;;;;;;9.30;49.94;103005.03;4922262;29;1012;-75
2021/04/13 11:24:56;;;;;;;;;;;;;;;7.78;54.27;103000.22;4924031;29;1009;-74
2021/04/13 11:28:19;;;;;;;;;;;;;;;7.40;57.53;102994.06;4901345;29;1319;-74
2021/04/13 11:31:11;;;;;;;;;;;;;;;7.78;58.22;102991.97;4908096;29;1291;-74
2021/04/13 11:33:50;;;;;;;;;;;;;;;11.75;48.38;102975.38;4940393;29;874;-74
2021/04/13 11:36:34;;;;;;;;;;;;;;;13.18;45.73;102973.91;4940312;29;1710;-75
2021/04/13 11:39:21;;;;;;;;;;;;;;;11.45;47.89;102974.69;4939344;29;1961;-74
2021/04/13 11:41:59;;;;;;;;;;;;;;;10.05;51.52;102978.38;4940449;29;802;-75
2021/04/13 11:45:11;;;;;;;;;;;;;;;8.90;54.47;102990.28;4939948;29;953;-74
2021/04/13 11:47:53;;;;;;;;;;;;;;;8.54;55.22;102993.13;4940028;29;1222;-75
2021/04/13 11:50:37;;;;;;;;;;;;;;;8.27;57.52;102991.47;4940234;29;822;-75
2021/04/13 11:53:09;;;;;;;;;;;;;;;8.47;56.43;102996.16;4940779;29;759;-74
2021/04/13 11:55:48;;;;;;;;;;;;;;;8.36;57.25;102988.16;4943970;29;934;-74
2021/04/13 11:58:24;;;;;;;;;;;;;;;8.35;56.97;102995.59;4939809;29;1182;-74
2021/04/13 12:01:12;;;;;;;;;;;;;;;10.95;51.30;102992.72;4940414;29;1902;-74
2021/04/13 12:03:55;;;;;;;;;;;;;;;12.06;46.94;102993.44;4939851;29;2620;-74
2021/04/13 12:06:55;;;;;;;;;;;;;;;11.79;47.50;102994.97;4954263;29;1601;-75
2021/04/13 12:09:42;;;;;;;;;;;;;;;11.06;49.95;103000.63;4939072;29;1342;-75
2021/04/13 12:12:31;;;;;;;;;;;;;;;9.65;53.37;103003.19;4939554;29;794;-74
2021/04/13 12:15:05;;;;;;;;;;;;;;;8.88;55.21;103005.47;4930632;29;1142;-74
2021/04/13 12:17:34;;;;;;;;;;;;;;;8.41;57.13;103012.91;4939274;29;802;-74
2021/04/13 12:20:29;;;;;;;;;;;;;;;9.09;55.45;103011.75;4939868;29;1890;-74
2021/04/13 12:22:59;;;;;;;;;;;;;;;9.40;54.58;103001.41;4939627;29;2015;-74
2021/04/13 12:25:33;;;;;;;;;;;;;;;13.41;45.64;102983.19;4939793;29;961;-74
2021/04/13 12:28:05;;;;;;;;;;;;;;;16.86;40.12;102969.25;4938731;29;1187;-74
2021/04/13 12:30:42;;;;;;;;;;;;;;;17.25;35.66;102971.97;4939227;29;896;-75
2021/04/13 12:33:28;;;;;;;;;;;;;;;16.40;35.67;102970.84;4939118;29;897;-75
2021/04/13 12:35:57;;;;;;;;;;;;;;;18.90;34.11;102969.59;4938841;29;1207;-75
2021/04/13 12:38:37;;;;;;;;;;;;;;;20.16;29.65;102967.78;4938228;29;1289;-75
2021/04/13 12:41:17;;;;;;;;;;;;;;;19.70;29.00;102961.63;4939701;29;1951;-75
2021/04/13 12:43:55;;;;;;;;;;;;;;;19.63;28.99;102961.44;4940030;29;873;-75
2021/04/13 12:46:33;;;;;;;;;;;;;;;20.69;29.27;102945.09;4939373;29;821;-75
2021/04/13 12:49:10;;;;;;;;;;;;;;;21.04;26.42;102964.00;4938679;29;1218;-75
2021/04/13 12:51:50;;;;;;;;;;;;;;;20.59;26.17;102952.06;4938864;29;1099;-75
2021/04/13 12:54:26;;;;;;;;;;;;;;;20.60;26.44;102945.25;4938657;29;1015;-75
2021/04/13 12:56:59;;;;;;;;;;;;;;;19.23;27.97;102963.03;4938588;29;853;-75
2021/04/13 12:59:27;;;;;;;;;;;;;;;18.42;27.27;102957.16;4938279;29;1977;-74
2021/04/13 13:01:53;;;;;;;;;;;;;;;18.18;27.71;102958.72;4938804;29;795;-75
2021/04/13 13:04:31;;;;;;;;;;;;;;;19.42;26.43;102961.63;4938498;29;1386;-75
2021/04/13 13:06:58;;;;;;;;;;;;;;;19.65;25.53;102959.88;4938315;29;969;-75
2021/04/13 13:09:25;;;;;;;;;;;;;;;17.94;26.48;102958.66;4938108;29;1222;-74
2021/04/13 13:12:14;;;;;;;;;;;;;;;18.02;27.70;102952.97;4928218;29;1497;-75
2021/04/13 13:14:42;;;;;;;;;;;;;;;18.35;25.11;102945.72;4919190;29;965;-74
2021/04/13 13:17:08;;;;;;;;;;;;;;;18.82;25.71;102952.88;4919023;29;865;-74
2021/04/13 13:19:50;;;;;;;;;;;;;;;18.61;26.08;102953.81;4918346;29;1890;-75
2021/04/13 13:22:24;;;;;;;;;;;;;;;18.63;27.64;102964.66;4919250;29;901;-75
2021/04/13 13:24:51;;;;;;;;;;;;;;;18.35;28.17;102954.13;4929189;29;1119;-74
2021/04/13 13:27:34;;;;;;;;;;;;;;;17.33;30.18;102971.09;4936906;29;2794;-75
2021/04/13 13:30:06;;;;;;;;;;;;;;;17.96;30.33;102970.31;4920909;29;1487;-75
2021/04/13 13:32:34;;;;;;;;;;;;;;;17.25;31.78;102975.59;4923662;29;1572;-75
2021/04/13 13:35:03;;;;;;;;;;;;;;;17.19;31.77;102979.75;4936948;29;850;-74
2021/04/13 13:37:36;;;;;;;;;;;;;;;17.82;31.56;102971.41;4937497;29;1227;-75
2021/04/13 13:40:07;;;;;;;;;;;;;;;17.90;28.83;102966.91;4936484;29;1965;-74
2021/04/13 13:42:33;;;;;;;;;;;;;;;16.80;30.20;102969.72;4936339;29;825;-75
2021/04/13 13:44:59;;;;;;;;;;;;;;;16.21;32.00;102970.44;4937864;29;1490;-74
2021/04/13 13:47:35;;;;;;;;;;;;;;;17.09;30.28;102963.38;4937775;29;825;-75